createdAt,value
2017-09-09T00:00:44.838Z,67.3
2017-09-09T00:01:44.134Z,66.6
2017-09-09T00:02:43.677Z,66.5
2017-09-09T00:03:42.837Z,67.2
2017-09-09T00:04:42.134Z,67.2
2017-09-09T00:05:41.554Z,66.6
2017-09-09T00:06:40.838Z,66.6
2017-09-09T00:07:11.193Z,66.6
2017-09-09T00:07:41.554Z,66.3
2017-09-09T00:08:39.458Z,66.5
2017-09-09T00:09:38.507Z,66.8
2017-09-09T00:10:37.683Z,67
2017-09-09T00:11:37.103Z,67.7
2017-09-09T00:12:36.520Z,67.1
2017-09-09T00:13:35.562Z,67.3
2017-09-09T00:14:35.124Z,67
2017-09-09T00:15:34.419Z,66.7
2017-09-09T00:16:33.590Z,66.7
2017-09-09T00:18:31.766Z,67
2017-09-09T00:19:31.563Z,67
2017-09-09T00:20:30.858Z,67
2017-09-09T00:21:29.776Z,67.1
2017-09-09T00:23:28.462Z,67.8
2017-09-09T00:24:27.888Z,67.2
2017-09-09T00:25:26.805Z,68.3
2017-09-09T00:26:26.356Z,67.3
2017-09-09T00:27:25.397Z,67.6
2017-09-09T00:28:25.074Z,68.1
2017-09-09T00:29:24.239Z,68
2017-09-09T00:31:22.545Z,67.6
2017-09-09T00:32:21.970Z,67.8
2017-09-09T00:33:21.392Z,67.9
2017-09-09T00:35:19.565Z,68.4
2017-09-09T00:36:18.985Z,68.2
2017-09-09T00:37:18.400Z,67.3
2017-09-09T00:38:17.818Z,67.4
2017-09-09T00:39:16.727Z,67.4
2017-09-09T00:40:16.021Z,67.4
2017-09-09T00:41:15.183Z,67.1
2017-09-09T00:42:14.599Z,67.3
2017-09-09T00:43:13.894Z,67.3
2017-09-09T00:44:13.437Z,67.7
2017-09-09T00:45:12.603Z,68
2017-09-09T00:46:11.776Z,67.5
2017-09-09T00:47:11.192Z,67.7
2017-09-09T00:48:10.114Z,67.8
2017-09-09T00:49:09.657Z,67.3
2017-09-09T00:50:08.945Z,67
2017-09-09T00:51:08.240Z,67.1
2017-09-09T00:52:07.659Z,67.3
2017-09-09T00:53:06.702Z,67.5
2017-09-09T00:54:05.870Z,67.3
2017-09-09T00:55:05.035Z,66.7
2017-09-09T00:56:04.600Z,66.8
2017-09-09T00:57:03.769Z,67
2017-09-09T00:58:03.194Z,67.5
2017-09-09T00:59:02.609Z,66.9
2017-09-09T01:00:01.528Z,67.2
2017-09-09T01:01:00.832Z,67.9
2017-09-09T01:02:59.503Z,67.3
2017-09-09T01:03:58.674Z,67.7
2017-09-09T01:04:57.836Z,67.3
2017-09-09T01:05:57.626Z,66.8
2017-09-09T01:06:56.420Z,66.9
2017-09-09T01:07:55.708Z,67.2
2017-09-09T01:08:55.507Z,67
2017-09-09T01:09:54.281Z,66.6
2017-09-09T01:10:53.702Z,67.1
2017-09-09T01:11:52.999Z,67.8
2017-09-09T01:12:52.547Z,67.1
2017-09-09T01:13:51.468Z,67.5
2017-09-09T01:14:50.632Z,67.3
2017-09-09T01:15:50.428Z,66.7
2017-09-09T01:16:49.212Z,67.3
2017-09-09T01:17:48.633Z,66.7
2017-09-09T01:19:47.313Z,66.8
2017-09-09T01:20:46.731Z,67.1
2017-09-09T01:21:45.654Z,67.6
2017-09-09T01:22:44.817Z,67.7
2017-09-09T01:23:44.365Z,67.7
2017-09-09T01:24:43.534Z,67.5
2017-09-09T01:26:42.340Z,67.3
2017-09-09T01:28:40.645Z,67.2
2017-09-09T01:29:39.821Z,67.9
2017-09-09T01:30:39.114Z,67.8
2017-09-09T01:31:38.409Z,67.3
2017-09-09T01:32:37.697Z,67.7
2017-09-09T01:33:36.995Z,67.9
2017-09-09T01:34:36.284Z,67.9
2017-09-09T01:35:35.576Z,67.9
2017-09-09T01:37:34.003Z,68.3
2017-09-09T01:38:33.673Z,68.6
2017-09-09T01:41:31.488Z,67.8
2017-09-09T01:42:30.535Z,68
2017-09-09T01:43:30.078Z,67.5
2017-09-09T01:44:29.125Z,67.4
2017-09-09T01:45:28.292Z,67.5
2017-09-09T01:46:27.474Z,68
2017-09-09T01:47:26.886Z,67.3
2017-09-09T01:48:25.924Z,67.5
2017-09-09T01:49:25.349Z,67.5
2017-09-09T01:50:24.889Z,67.7
2017-09-09T01:51:24.182Z,68
2017-09-09T01:52:23.474Z,67.7
2017-09-09T01:53:22.768Z,67.9
2017-09-09T01:54:21.689Z,67.9
2017-09-09T01:54:51.919Z,67.9
2017-09-09T01:55:22.650Z,68.8
2017-09-09T01:55:52.886Z,68.8
2017-09-09T01:56:23.376Z,67.9
2017-09-09T01:56:53.736Z,67.9
2017-09-09T01:57:23.971Z,67.4
2017-09-09T01:57:54.193Z,67.4
2017-09-09T01:59:18.030Z,67.4
2017-09-09T02:00:17.329Z,67.4
2017-09-09T02:01:16.616Z,67.6
2017-09-09T02:02:15.781Z,67.7
2017-09-09T02:03:15.325Z,68.4
2017-09-09T02:04:14.619Z,67.7
2017-09-09T02:05:14.168Z,68.2
2017-09-09T02:06:12.959Z,68.9
2017-09-09T02:07:12.379Z,68.6
2017-09-09T02:08:11.419Z,68
2017-09-09T02:09:11.092Z,67.8
2017-09-09T02:10:10.383Z,68.5
2017-09-09T02:11:09.427Z,68.1
2017-09-09T02:12:08.723Z,68
2017-09-09T02:13:07.892Z,68.3
2017-09-09T02:14:07.437Z,67.6
2017-09-09T02:15:06.509Z,68.2
2017-09-09T02:16:06.053Z,68.5
2017-09-09T03:17:51.876Z,67.1
2017-09-09T03:18:22.239Z,66.6
2017-09-09T03:19:19.527Z,66.9
2017-09-09T03:20:18.828Z,67.1
2017-09-09T03:21:17.752Z,67.2
2017-09-09T03:22:17.048Z,66.8
2017-09-09T03:24:15.738Z,67.3
2017-09-09T03:25:14.921Z,67.2
2017-09-09T03:26:14.344Z,67.1
2017-09-09T03:28:12.901Z,67.4
2017-09-09T03:29:12.332Z,67.9
2017-09-09T03:30:11.255Z,67.3
2017-09-09T03:31:10.690Z,68.5
2017-09-09T03:32:09.990Z,67.4
2017-09-09T03:33:09.284Z,67.3
2017-09-09T03:34:08.207Z,67.6
2017-09-09T03:35:08.006Z,67.4
2017-09-09T03:36:06.938Z,67.1
2017-09-09T03:37:06.111Z,68.1
2017-09-09T03:38:05.541Z,67.4
2017-09-09T03:39:04.848Z,67.8
2017-09-09T03:40:04.142Z,67.3
2017-09-09T03:41:03.441Z,67.4
2017-09-09T03:42:02.754Z,67.8
2017-09-09T03:43:02.053Z,67.4
2017-09-09T03:45:00.390Z,68.1
2017-09-09T03:45:59.941Z,67.8
2017-09-09T03:46:59.234Z,67.6
2017-09-09T03:47:58.534Z,67.6
2017-09-09T03:48:57.710Z,67.6
2017-09-09T03:49:56.882Z,67.8
2017-09-09T03:50:56.181Z,67.6
2017-09-09T03:51:55.352Z,67.7
2017-09-09T03:52:54.649Z,67.5
2017-09-09T03:53:53.947Z,67.2
2017-09-09T03:54:53.128Z,67.5
2017-09-09T03:55:52.304Z,67.5
2017-09-09T03:56:52.119Z,67.9
2017-09-09T03:57:50.918Z,67.6
2017-09-09T03:58:50.352Z,67.6
2017-09-09T03:59:49.519Z,68
2017-09-09T04:00:48.822Z,67.3
2017-09-09T04:02:47.630Z,67.6
2017-09-09T04:03:46.804Z,68.2
2017-09-09T04:04:45.972Z,68.1
2017-09-09T04:05:45.270Z,68
2017-09-09T04:06:44.572Z,68.3
2017-09-09T04:07:43.883Z,68.2
2017-09-09T04:08:43.184Z,67.6
2017-09-09T04:09:42.234Z,67.7
2017-09-09T04:10:41.661Z,67.3
2017-09-09T04:11:41.088Z,67.5
2017-09-09T04:12:40.009Z,67.4
2017-09-09T04:13:39.803Z,67.6
2017-09-09T04:14:38.474Z,68.1
2017-09-09T04:15:37.770Z,67.7
2017-09-09T04:16:37.074Z,68.3
2017-09-09T04:17:36.369Z,68.6
2017-09-09T04:18:35.669Z,68.2
2017-09-09T04:19:34.967Z,68.9
2017-09-09T04:20:34.145Z,68.9
2017-09-09T04:21:33.572Z,68.9
2017-09-09T04:22:32.995Z,68.5
2017-09-09T04:23:32.291Z,69.2
2017-09-09T04:27:29.501Z,68.4
2017-09-09T04:28:28.928Z,68.5
2017-09-09T04:29:28.225Z,68.4
2017-09-09T04:30:27.152Z,68.1
2017-09-09T04:31:26.325Z,68.6
2017-09-09T04:32:25.500Z,68.1
2017-09-09T04:33:24.926Z,68.2
2017-09-09T04:34:24.347Z,68
2017-09-09T04:35:23.648Z,68.4
2017-09-09T04:36:22.947Z,68.4
2017-09-09T04:37:22.246Z,68.7
2017-09-09T04:38:21.297Z,68.7
2017-09-09T04:39:20.598Z,68.5
2017-09-09T04:40:20.021Z,69.2
2017-09-09T04:41:19.201Z,68.8
2017-09-09T04:42:18.631Z,68.1
2017-09-09T04:43:17.927Z,68.7
2017-09-09T04:44:17.227Z,68.7
2017-09-09T04:45:16.399Z,68.5
2017-09-09T04:46:15.324Z,68
2017-09-09T04:47:15.005Z,69
2017-09-09T04:48:14.049Z,68.4
2017-09-09T04:49:13.353Z,68.8
2017-09-09T04:50:12.404Z,68.5
2017-09-09T04:51:12.208Z,69.2
2017-09-09T04:52:11.252Z,69.4
2017-09-09T04:53:10.811Z,69
2017-09-09T04:54:09.737Z,68.8
2017-09-09T04:54:39.982Z,68.8
2017-09-09T04:55:10.714Z,68.9
2017-09-09T04:56:08.380Z,68.8
2017-09-09T04:57:07.554Z,69.3
2017-09-09T04:58:06.980Z,69.1
2017-09-09T04:59:06.280Z,69
2017-09-09T05:00:05.580Z,69
2017-09-09T05:01:04.630Z,69.6
2017-09-09T05:02:03.930Z,69.3
2017-09-09T05:03:02.978Z,69.5
2017-09-09T05:04:02.783Z,69.1
2017-09-09T05:05:01.960Z,69.1
2017-09-09T05:06:01.257Z,68.7
2017-09-09T05:07:00.558Z,68.7
2017-09-09T05:07:59.483Z,68.4
2017-09-09T05:08:58.666Z,68.8
2017-09-09T05:09:58.225Z,68.1
2017-09-09T05:10:57.400Z,68.4
2017-09-09T05:11:56.952Z,68.5
2017-09-09T05:12:55.872Z,69.7
2017-09-09T05:13:55.176Z,69.5
2017-09-09T05:14:54.726Z,68
2017-09-09T05:15:53.772Z,68.1
2017-09-09T05:16:52.948Z,68.3
2017-09-09T05:17:52.241Z,68.9
2017-09-09T05:18:51.923Z,68.6
2017-09-09T05:19:51.092Z,69.5
2017-09-09T05:20:50.520Z,69.8
2017-09-09T05:21:49.568Z,69.6
2017-09-09T05:22:48.734Z,69.8
2017-09-09T05:23:47.910Z,68.9
2017-09-09T05:24:47.207Z,69.6
2017-09-09T05:26:45.648Z,69.9
2017-09-09T05:27:45.326Z,69.4
2017-09-09T05:28:44.500Z,69.6
2017-09-09T05:29:43.932Z,69.8
2017-09-09T05:30:42.849Z,70.2
2017-09-09T05:31:42.051Z,70.4
2017-09-09T05:32:41.479Z,69.5
2017-09-09T05:33:40.901Z,69.9
2017-09-09T05:34:39.814Z,70.6
2017-09-09T05:35:39.615Z,70.7
2017-09-09T05:36:38.541Z,71.4
2017-09-09T05:37:38.097Z,71.4
2017-09-09T05:38:37.148Z,70.2
2017-09-09T05:40:35.837Z,70.5
2017-09-09T05:41:35.271Z,70
2017-09-09T05:42:34.190Z,69.6
2017-09-09T05:43:33.661Z,70.3
2017-09-09T05:44:33.087Z,70.7
2017-09-09T05:45:32.257Z,70
2017-09-09T05:46:31.685Z,69.9
2017-09-09T05:47:01.792Z,69.9
2017-09-09T05:47:32.405Z,69.9
2017-09-09T05:48:02.890Z,69.9
2017-09-09T05:48:33.370Z,70.5
2017-09-09T05:49:03.983Z,70.5
2017-09-09T05:50:28.567Z,70
2017-09-09T05:51:27.868Z,69.5
2017-09-09T05:52:27.047Z,69.4
2017-09-09T05:53:26.472Z,69.3
2017-09-09T05:54:25.394Z,69.1
2017-09-09T05:55:24.818Z,70.5
2017-09-09T05:56:23.869Z,70.5
2017-09-09T05:57:23.168Z,70.1
2017-09-09T05:59:21.989Z,70.2
2017-09-09T06:00:21.170Z,70.2
2017-09-09T06:01:20.352Z,70.3
2017-09-09T06:02:19.659Z,70.7
2017-09-09T06:03:19.212Z,70.5
2017-09-09T06:04:18.507Z,70.5
2017-09-09T06:05:17.429Z,71
2017-09-09T06:06:16.605Z,70.4
2017-09-09T06:07:15.905Z,70.8
2017-09-09T06:08:15.463Z,72
2017-09-09T06:09:14.509Z,72.4
2017-09-09T06:10:14.310Z,72.5
2017-09-09T06:11:13.233Z,71.6
2017-09-09T06:12:12.286Z,72.5
2017-09-09T06:13:11.966Z,72
2017-09-09T06:14:11.267Z,71.8
2017-09-09T06:15:10.196Z,71.9
2017-09-09T06:16:09.642Z,72
2017-09-09T06:17:08.943Z,73.4
2017-09-09T06:18:08.365Z,72.3
2017-09-09T06:19:07.548Z,73.1
2017-09-09T06:20:06.856Z,73.6
2017-09-09T06:21:06.029Z,73.8
2017-09-09T06:22:05.078Z,73.7
2017-09-09T06:23:04.377Z,73.9
2017-09-09T06:24:03.806Z,73
2017-09-09T06:25:03.105Z,74.5
2017-09-09T06:26:02.411Z,73.7
2017-09-09T06:27:01.712Z,73.2
2017-09-09T06:28:00.886Z,74.6
2017-09-09T06:29:00.564Z,75.2
2017-09-09T06:29:31.192Z,75.2
2017-09-09T06:30:01.554Z,74.5
2017-09-09T06:30:58.584Z,75.2
2017-09-09T06:31:58.262Z,75.6
2017-09-09T06:32:57.433Z,74.9
2017-09-09T06:33:56.604Z,75.5
2017-09-09T06:34:55.906Z,74.7
2017-09-09T06:35:55.458Z,75.6
2017-09-09T06:36:54.378Z,76.5
2017-09-09T06:37:53.674Z,76.5
2017-09-09T06:38:52.849Z,77
2017-09-09T06:39:52.308Z,77.8
2017-09-09T06:40:51.608Z,77.6
2017-09-09T06:41:50.917Z,78.7
2017-09-09T06:42:50.221Z,77.1
2017-09-09T06:43:49.273Z,78
2017-09-09T06:45:47.965Z,78.7
2017-09-09T06:46:47.144Z,78.7
2017-09-09T06:47:46.566Z,77.7
2017-09-09T06:48:45.616Z,78.9
2017-09-09T06:49:45.049Z,79.9
2017-09-09T06:50:44.096Z,79.6
2017-09-09T06:51:43.903Z,79.9
2017-09-09T06:52:43.198Z,79.6
2017-09-09T06:53:41.904Z,80
2017-09-09T06:54:41.553Z,81.4
2017-09-09T06:55:40.726Z,82.5
2017-09-09T06:56:39.904Z,82.6
2017-09-09T06:57:39.088Z,80.9
2017-09-09T06:58:38.514Z,81.1
2017-09-09T06:59:37.685Z,81.5
2017-09-09T07:00:37.375Z,82.5
2017-09-09T07:01:36.555Z,83
2017-09-09T07:02:35.855Z,82.9
2017-09-09T07:03:35.147Z,83.3
2017-09-09T07:04:33.945Z,83
2017-09-09T07:05:33.623Z,83.4
2017-09-09T07:07:31.814Z,82.4
2017-09-09T07:08:31.363Z,81.9
2017-09-09T07:09:30.558Z,81
2017-09-09T07:10:30.105Z,81.6
2017-09-09T07:11:29.400Z,81.9
2017-09-09T07:12:28.567Z,82.5
2017-09-09T07:13:27.626Z,82.1
2017-09-09T07:14:27.176Z,82
2017-09-09T07:15:26.479Z,83.3
2017-09-09T07:16:25.409Z,82.5
2017-09-09T07:16:55.776Z,82.5
2017-09-09T07:17:26.015Z,82.5
2017-09-09T07:18:24.055Z,83.1
2017-09-09T07:19:23.135Z,82.1
2017-09-09T07:20:22.306Z,83.3
2017-09-09T07:41:07.209Z,82.8
2017-09-09T07:44:05.281Z,80.6
2017-09-09T07:45:04.574Z,82.3
2017-09-09T07:46:03.618Z,79.9
2017-09-09T07:47:03.046Z,80.1
2017-09-09T07:48:01.969Z,79.1
2017-09-09T07:49:01.534Z,78.3
2017-09-09T07:50:00.706Z,79.6
2017-09-09T07:50:59.654Z,79.3
2017-09-09T07:52:58.338Z,79
2017-09-09T07:54:56.654Z,79.4
2017-09-09T07:55:56.457Z,79.6
2017-09-09T07:57:54.508Z,78.6
2017-09-09T07:58:54.187Z,80
2017-09-09T08:00:52.625Z,77.9
2017-09-09T08:02:51.061Z,78.7
2017-09-09T08:03:50.235Z,78.9
2017-09-09T08:04:49.915Z,79.4
2017-09-09T08:05:48.968Z,78.2
2017-09-09T08:06:48.011Z,77.6
2017-09-09T08:07:47.437Z,79.6
2017-09-09T08:08:46.483Z,78.4
2017-09-09T08:09:45.790Z,78.3
2017-09-09T08:11:44.604Z,78.5
2017-09-09T08:12:44.031Z,79
2017-09-09T08:13:43.207Z,78.8
2017-09-09T08:15:41.389Z,77.8
2017-09-09T08:16:40.694Z,78.8
2017-09-09T08:17:39.868Z,77.8
2017-09-09T08:19:38.808Z,75.8
2017-09-09T08:20:37.730Z,76.3
2017-09-09T08:23:35.547Z,76.3
2017-09-09T08:24:34.714Z,74.9
2017-09-09T08:25:34.265Z,75.8
2017-09-09T08:26:33.439Z,76.6
2017-09-09T08:27:32.860Z,76.5
2017-09-09T08:29:31.427Z,75.9
2017-09-09T08:30:30.729Z,76.5
2017-09-09T08:31:30.152Z,75.6
2017-09-09T08:32:29.328Z,76.4
2017-09-09T08:33:28.123Z,75.7
2017-09-09T08:35:26.684Z,75.5
2017-09-09T08:36:26.369Z,76.3
2017-09-09T08:45:19.755Z,75.9
2017-09-09T08:46:19.052Z,76.4
2017-09-09T08:48:17.617Z,74.6
2017-09-09T08:50:16.172Z,74.7
2017-09-09T08:51:15.226Z,75.4
2017-09-09T08:52:14.775Z,74.5
2017-09-09T08:53:14.076Z,75
2017-09-09T08:54:12.874Z,76.2
2017-09-09T08:55:12.303Z,75.8
2017-09-09T08:56:11.990Z,75.3
2017-09-09T08:57:10.660Z,75
2017-09-09T08:58:10.218Z,74.6
2017-09-09T08:59:09.645Z,74.9
2017-09-09T09:00:09.073Z,74
2017-09-09T09:01:08.130Z,75.8
2017-09-09T09:03:06.562Z,74.3
2017-09-09T09:04:06.117Z,74.1
2017-09-09T09:05:05.295Z,73.9
2017-09-09T09:08:02.898Z,74.5
2017-09-09T09:11:00.728Z,73.7
2017-09-09T09:12:00.030Z,73.8
2017-09-09T09:12:59.322Z,74.3
2017-09-09T09:14:57.887Z,74.3
2017-09-09T09:15:57.476Z,74.2
2017-09-09T09:16:56.276Z,74.1
2017-09-09T09:17:55.702Z,75.3
2017-09-09T09:18:54.876Z,74.5
2017-09-09T09:19:54.175Z,74.1
2017-09-09T09:20:53.729Z,74.3
2017-09-09T09:21:52.904Z,73.9
2017-09-09T09:22:52.084Z,73.7
2017-09-09T09:24:50.650Z,75
2017-09-09T09:26:49.089Z,73.3
2017-09-09T09:27:48.388Z,73.2
2017-09-09T09:28:47.932Z,74
2017-09-09T09:29:46.981Z,73.7
2017-09-09T09:30:46.281Z,74.1
2017-09-09T09:31:45.576Z,73.2
2017-09-09T09:32:45.009Z,74.6
2017-09-09T09:33:44.311Z,73.5
2017-09-09T09:34:43.362Z,72.9
2017-09-09T09:35:42.529Z,72.5
2017-09-09T09:36:41.958Z,73
2017-09-09T09:37:41.503Z,73.1
2017-09-09T09:38:40.432Z,72.5
2017-09-09T09:39:39.736Z,72.9
2017-09-09T09:40:38.911Z,73.1
2017-09-09T09:42:37.736Z,73.1
2017-09-09T09:43:36.906Z,72
2017-09-09T09:44:35.953Z,72.5
2017-09-09T09:45:06.307Z,72.5
2017-09-09T09:47:33.927Z,71.8
2017-09-09T09:48:33.100Z,72.1
2017-09-09T09:49:32.650Z,71.3
2017-09-09T09:50:31.952Z,71.8
2017-09-09T09:51:30.874Z,71.7
2017-09-09T09:52:30.682Z,72.4
2017-09-09T09:53:29.858Z,72.6
2017-09-09T09:54:29.180Z,72.7
2017-09-09T09:56:27.740Z,71.9
2017-09-09T09:58:26.045Z,72.1
2017-09-09T10:05:21.164Z,70.8
2017-09-09T10:06:20.337Z,71
2017-09-09T10:09:18.154Z,70.7
2017-09-09T10:10:17.458Z,70.8
2017-09-09T10:12:16.264Z,70.3
2017-09-09T10:16:13.222Z,70
2017-09-09T10:17:12.516Z,69.5
2017-09-09T10:18:12.071Z,69.4
2017-09-09T10:19:11.118Z,69.5
2017-09-09T10:20:10.417Z,69.5
2017-09-09T10:21:09.592Z,69.9
2017-09-09T10:22:08.892Z,69.4
2017-09-09T10:23:08.444Z,69.4
2017-09-09T10:24:07.616Z,69.8
2017-09-09T10:25:07.045Z,69.4
2017-09-09T10:26:06.345Z,69.5
2017-09-09T10:27:05.648Z,69.6
2017-09-09T10:28:04.563Z,69.8
2017-09-09T10:29:04.115Z,69.1
2017-09-09T10:30:03.038Z,69.6
2017-09-09T10:32:01.733Z,69.1
2017-09-09T10:33:01.289Z,69.6
2017-09-09T10:34:59.602Z,70.4
2017-09-09T10:36:58.289Z,71.3
2017-09-09T10:37:57.460Z,71
2017-09-09T10:38:28.203Z,71
2017-09-09T10:38:58.560Z,70.8
2017-09-09T10:42:54.389Z,70
2017-09-09T10:43:53.567Z,70.1
2017-09-09T10:45:51.880Z,69.9
2017-09-09T10:46:51.427Z,70.1
2017-09-09T10:48:49.612Z,69.7
2017-09-09T10:51:47.807Z,70
2017-09-09T10:52:47.237Z,69.3
2017-09-09T10:54:45.798Z,69.4
2017-09-09T10:55:15.909Z,69.4
2017-09-09T10:56:44.277Z,69.4
2017-09-09T10:57:43.451Z,69.4
2017-09-09T10:58:42.754Z,69.1
2017-09-09T11:00:41.702Z,68.9
2017-09-09T11:01:41.001Z,68.5
2017-09-09T11:02:40.298Z,69
2017-09-09T11:03:39.347Z,68
2017-09-09T11:04:38.788Z,68.4
2017-09-09T11:07:36.476Z,68
2017-09-09T11:08:35.783Z,68.4
2017-09-09T11:10:34.344Z,68.2
2017-09-09T11:11:33.768Z,69.3
2017-09-09T11:12:32.816Z,68.4
2017-09-09T11:13:32.488Z,68.3
2017-09-09T11:15:30.923Z,67.8
2017-09-09T11:16:30.259Z,68.4
2017-09-09T11:17:29.438Z,68.9
2017-09-09T11:18:28.606Z,69.7
2017-09-09T11:19:28.160Z,69.8
2017-09-09T11:20:27.453Z,70.3
2017-09-09T11:22:26.260Z,71.8
2017-09-09T11:24:24.565Z,73.6
2017-09-09T11:25:23.861Z,74.1
2017-09-09T11:26:23.288Z,73.4
2017-09-09T11:28:21.976Z,73.8
2017-09-09T11:29:21.148Z,73.8
2017-09-09T11:31:19.712Z,74.6
2017-09-09T11:37:15.566Z,73
2017-09-09T11:37:46.053Z,73
2017-09-09T11:40:13.680Z,73.3
2017-09-09T11:41:12.979Z,72.2
2017-09-09T11:42:12.528Z,72.1
2017-09-09T11:43:11.578Z,72.5
2017-09-09T11:44:10.882Z,72.8
2017-09-09T11:45:10.091Z,72.5
2017-09-09T11:46:09.649Z,73.5
2017-09-09T11:47:08.958Z,73.9
2017-09-09T11:48:08.253Z,73.6
2017-09-09T11:49:07.552Z,72.7
2017-09-09T11:50:06.978Z,74.8
2017-09-09T11:51:05.776Z,74.9
2017-09-09T11:57:01.771Z,76.2
2017-09-09T11:58:00.952Z,74.8
2017-09-09T11:59:00.534Z,75.1
2017-09-09T11:59:59.705Z,74.8
2017-09-09T12:00:59.128Z,75.4
2017-09-09T12:03:57.074Z,76.6
2017-09-09T12:04:56.121Z,76.5
2017-09-09T12:05:55.291Z,76.5
2017-09-09T12:06:54.974Z,76.1
2017-09-09T12:07:54.276Z,76.6
2017-09-09T12:08:53.573Z,76
2017-09-09T12:09:52.745Z,76.6
2017-09-09T12:14:49.463Z,78.3
2017-09-09T12:15:48.640Z,78
2017-09-09T12:16:48.065Z,77.6
2017-09-09T12:18:46.375Z,77.5
2017-09-09T12:19:45.675Z,78.2
2017-09-09T12:21:44.364Z,77.1
2017-09-09T12:23:43.176Z,76.8
2017-09-09T12:24:42.230Z,77.1
2017-09-09T12:27:40.186Z,77.6
2017-09-09T12:28:39.609Z,77.8
2017-09-09T12:29:38.532Z,79
2017-09-09T12:30:37.961Z,78.1
2017-09-09T12:31:37.512Z,78.3
2017-09-09T12:32:36.561Z,77.9
2017-09-09T12:34:35.127Z,78.2
2017-09-09T12:35:34.429Z,79
2017-09-09T12:37:33.117Z,77.9
2017-09-09T12:38:32.432Z,78.5
2017-09-09T12:39:31.606Z,78.7
2017-09-09T12:40:31.294Z,78.2
2017-09-09T12:41:30.465Z,78.6
2017-09-09T12:42:29.794Z,78.7
2017-09-09T12:43:28.972Z,79.4
2017-09-09T12:44:28.150Z,79.3
2017-09-09T12:45:27.569Z,79
2017-09-09T12:46:26.869Z,78.6
2017-09-09T12:47:26.038Z,78.4
2017-09-09T12:48:25.342Z,78.4
2017-09-09T12:51:23.301Z,78.7
2017-09-09T12:52:22.724Z,78.1
2017-09-09T12:53:22.021Z,79.1
2017-09-09T12:54:21.328Z,79
2017-09-09T12:55:20.513Z,77.8
2017-09-09T12:56:19.564Z,77.8
2017-09-09T12:57:18.984Z,77.4
2017-09-09T12:58:18.285Z,77.7
2017-09-09T12:59:17.457Z,78.1
2017-09-09T13:00:17.134Z,78
2017-09-09T13:01:16.310Z,78.2
2017-09-09T13:02:15.728Z,77.2
2017-09-09T13:03:14.910Z,77.3
2017-09-09T13:04:14.088Z,77.9
2017-09-09T13:05:13.136Z,76.8
2017-09-09T13:06:12.557Z,77.1
2017-09-09T13:07:11.982Z,77.1
2017-09-09T13:08:11.408Z,76.9
2017-09-09T13:09:10.712Z,77.3
2017-09-09T13:10:09.902Z,77.2
2017-09-09T13:11:09.076Z,77.1
2017-09-09T13:12:08.756Z,78.1
2017-09-09T13:13:07.673Z,77.2
2017-09-09T13:14:07.100Z,78.1
2017-09-09T13:15:06.150Z,78.6
2017-09-09T13:18:04.101Z,78.2
2017-09-09T13:19:03.448Z,78.4
2017-09-09T13:20:02.778Z,77
2017-09-09T13:21:02.208Z,77.2
2017-09-09T13:22:01.636Z,77.9
2017-09-09T13:24:59.591Z,77.3
2017-09-09T13:26:58.025Z,76.9
2017-09-09T13:27:57.324Z,77.2
2017-09-09T13:28:56.620Z,76.4
2017-09-09T13:29:55.795Z,76.9
2017-09-09T13:30:55.096Z,76.2
2017-09-09T13:31:54.396Z,76.7
2017-09-09T13:32:53.577Z,76.4
2017-09-09T13:33:52.749Z,77.2
2017-09-09T13:34:52.549Z,76.3
2017-09-09T13:35:51.470Z,76.6
2017-09-09T13:36:50.771Z,77.1
2017-09-09T13:37:49.937Z,76.3
2017-09-09T13:38:49.357Z,75.2
2017-09-09T13:39:48.657Z,75.3
2017-09-09T13:40:47.957Z,75.7
2017-09-09T13:41:47.509Z,76
2017-09-09T13:42:46.679Z,75.3
2017-09-09T13:43:45.850Z,74.6
2017-09-09T13:44:45.274Z,75.4
2017-09-09T13:45:44.451Z,74
2017-09-09T13:46:43.762Z,74.3
2017-09-09T13:47:43.560Z,74.4
2017-09-09T13:48:42.732Z,73.7
2017-09-09T13:49:41.656Z,73.4
2017-09-09T13:50:41.219Z,73.1
2017-09-09T13:51:40.524Z,73.8
2017-09-09T13:52:39.949Z,73.7
2017-09-09T13:53:38.857Z,73.2
2017-09-09T13:54:38.530Z,74.3
2017-09-09T13:55:37.708Z,73.6
2017-09-09T13:56:08.330Z,73.6
2017-09-09T13:56:38.951Z,72.8
2017-09-09T13:57:09.571Z,72.8
2017-09-09T13:57:39.679Z,72.3
2017-09-09T13:58:10.044Z,72.3
2017-09-09T13:58:40.659Z,73.2
2017-09-09T13:59:11.151Z,73.2
2017-09-09T13:59:41.509Z,72.4
2017-09-09T14:00:11.989Z,72.4
2017-09-09T14:01:33.435Z,72.3
2017-09-09T14:02:33.109Z,72.4
2017-09-09T14:03:32.282Z,73
2017-09-09T14:04:31.333Z,70.8
2017-09-09T14:05:30.887Z,71.6
2017-09-09T14:06:30.062Z,70.9
2017-09-09T14:07:29.235Z,72
2017-09-09T14:08:28.910Z,71.2
2017-09-09T14:09:28.204Z,71.7
2017-09-09T14:10:27.502Z,71.7
2017-09-09T14:10:57.745Z,71.7
2017-09-09T14:11:27.856Z,70.2
2017-09-09T14:13:25.286Z,70.9
2017-09-09T14:14:24.708Z,71.2
2017-09-09T14:15:23.881Z,71.9
2017-09-09T14:16:23.430Z,70.9
2017-09-09T14:17:22.731Z,71.3
2017-09-09T14:18:21.911Z,70.7
2017-09-09T14:19:21.091Z,71.7
2017-09-09T14:20:20.889Z,70.9
2017-09-09T14:21:19.805Z,70.9
2017-09-09T14:22:19.101Z,70.3
2017-09-09T14:23:18.400Z,70.4
2017-09-09T14:24:17.698Z,70.6
2017-09-09T14:25:17.134Z,70.8
2017-09-09T14:26:16.561Z,70.7
2017-09-09T14:27:15.733Z,70.6
2017-09-09T14:29:14.301Z,71.8
2017-09-09T14:30:13.980Z,71.9
2017-09-09T14:31:13.025Z,72.1
2017-09-09T14:32:12.204Z,71.8
2017-09-09T14:33:12.008Z,71.6
2017-09-09T14:34:10.803Z,70.9
2017-09-09T14:35:10.618Z,71.4
2017-09-09T14:36:09.663Z,70.5
2017-09-09T14:37:09.217Z,70.4
2017-09-09T14:38:08.514Z,70.8
2017-09-09T14:39:07.812Z,71.5
2017-09-09T14:40:07.111Z,71.1
2017-09-09T14:41:06.288Z,70.9
2017-09-09T14:43:04.853Z,70.2
2017-09-09T14:44:04.279Z,70.4
2017-09-09T14:46:02.837Z,70.4
2017-09-09T14:47:02.272Z,70.3
2017-09-09T14:48:01.573Z,70.4
2017-09-09T14:49:00.746Z,70.4
2017-09-09T14:49:59.916Z,70.1
2017-09-09T14:50:59.597Z,70.8
2017-09-09T14:51:29.958Z,70.8
2017-09-09T14:52:00.448Z,70.1
2017-09-09T14:52:58.244Z,70.3
2017-09-09T14:53:57.797Z,70.6
2017-09-09T14:54:56.603Z,70.1
2017-09-09T14:56:55.295Z,70.5
2017-09-09T14:57:54.975Z,69.6
2017-09-09T14:58:53.899Z,69.2
2017-09-09T14:59:53.255Z,69.7
2017-09-09T15:00:53.068Z,70
2017-09-09T15:01:52.117Z,70.3
2017-09-09T15:02:51.426Z,69.9
2017-09-09T15:03:50.726Z,69.7
2017-09-09T15:04:50.156Z,69.7
2017-09-09T15:05:49.463Z,69.7
2017-09-09T15:06:48.890Z,70.2
2017-09-09T15:08:47.200Z,70.9
2017-09-09T15:09:46.497Z,71.4
2017-09-09T15:10:45.930Z,71.2
2017-09-09T15:11:45.490Z,70.8
2017-09-09T15:12:44.924Z,70.6
2017-09-09T15:13:43.721Z,69.9
2017-09-09T15:14:43.523Z,70.5
2017-09-09T15:15:42.698Z,70.1
2017-09-09T15:16:42.124Z,70.2
2017-09-09T15:17:41.048Z,71.1
2017-09-09T15:18:40.470Z,70
2017-09-09T15:19:39.769Z,69.8
2017-09-09T15:20:39.318Z,69.7
2017-09-09T15:21:38.363Z,70
2017-09-09T15:22:37.919Z,69.4
2017-09-09T15:23:37.223Z,69.7
2017-09-09T15:24:36.282Z,70.1
2017-09-09T15:25:36.092Z,70.4
2017-09-09T15:26:35.008Z,70
2017-09-09T15:27:34.567Z,69.8
2017-09-09T15:28:33.612Z,69.7
2017-09-09T15:29:32.791Z,70.2
2017-09-09T15:30:32.595Z,70.1
2017-09-09T15:31:31.901Z,70.5
2017-09-09T15:32:31.075Z,70.5
2017-09-09T15:33:30.373Z,70.4
2017-09-09T15:34:29.558Z,71.1
2017-09-09T15:35:29.112Z,70.3
2017-09-09T15:36:28.283Z,70.6
2017-09-09T15:37:27.461Z,71.7
2017-09-09T15:38:26.879Z,70.6
2017-09-09T15:39:26.182Z,70.6
2017-09-09T15:40:25.356Z,70.3
2017-09-09T15:41:24.655Z,70.7
2017-09-09T15:42:23.951Z,71
2017-09-09T15:43:23.881Z,70.6
2017-09-09T15:45:22.319Z,70.2
2017-09-09T15:46:21.492Z,71.4
2017-09-09T15:47:20.925Z,70.3
2017-09-09T15:47:51.537Z,70.3
2017-09-09T15:49:19.393Z,71.5
2017-09-09T15:50:18.698Z,71.8
2017-09-09T15:51:18.122Z,71.9
2017-09-09T15:52:17.545Z,70.4
2017-09-09T15:53:16.968Z,71
2017-09-09T15:54:15.780Z,70.5
2017-09-09T15:55:15.076Z,70.9
2017-09-09T15:56:14.373Z,71.2
2017-09-09T15:57:14.059Z,72
2017-09-09T15:58:13.106Z,72.2
2017-09-09T15:59:12.687Z,70.6
2017-09-09T16:01:11.130Z,71.7
2017-09-09T16:03:09.690Z,70.4
2017-09-09T16:04:09.373Z,70.9
2017-09-09T16:05:08.548Z,70.9
2017-09-09T16:06:07.849Z,70.5
2017-09-09T16:07:07.156Z,71.6
2017-09-09T16:09:05.846Z,70.9
2017-09-09T16:10:05.024Z,71.2
2017-09-09T16:11:04.333Z,70.6
2017-09-09T16:12:03.756Z,71.1
2017-09-09T16:13:03.180Z,71.2
2017-09-09T16:14:02.495Z,70.8
2017-09-09T16:15:01.451Z,71
2017-09-09T16:16:00.917Z,71.2
2017-09-09T16:16:59.962Z,70.8
2017-09-09T16:17:59.392Z,71.9
2017-09-09T16:18:59.072Z,72.8
2017-09-09T16:19:57.872Z,71.8
2017-09-09T16:20:57.798Z,71.1
2017-09-09T16:21:56.981Z,71.3
2017-09-09T16:22:56.042Z,71.7
2017-09-09T16:23:55.716Z,71.2
2017-09-09T16:24:54.890Z,71.3
2017-09-09T16:25:54.196Z,71
2017-09-09T16:26:53.496Z,72
2017-09-09T16:27:52.550Z,71.8
2017-09-09T16:28:51.972Z,71.7